createdAt,value
2023-03-02T00:00:41.662Z,32.17
2023-03-02T00:03:19.711Z,32.67
2023-03-02T00:05:55.653Z,34.30
2023-03-02T00:08:32.123Z,33.83
2023-03-02T00:11:08.759Z,34.73
2023-03-02T00:13:45.667Z,35.50
2023-03-02T00:16:24.388Z,34.50
2023-03-02T00:19:00.775Z,34.73
2023-03-02T00:21:36.630Z,33.23
2023-03-02T00:24:12.892Z,35.60
2023-03-02T00:26:48.995Z,34.00
2023-03-02T00:29:25.772Z,33.77
2023-03-02T00:32:08.168Z,34.13
2023-03-02T00:34:45.907Z,34.63
2023-03-02T00:37:23.991Z,33.37
2023-03-02T00:40:00.281Z,35.17
2023-03-02T00:42:36.247Z,34.03
2023-03-02T00:45:13.183Z,33.73
2023-03-02T00:47:51.916Z,33.63
2023-03-02T00:50:28.174Z,33.90
2023-03-02T00:53:04.590Z,34.87
2023-03-02T00:55:41.363Z,35.30
2023-03-02T00:58:22.232Z,35.57
2023-03-02T01:00:58.672Z,35.30
2023-03-02T01:03:41.852Z,37.13
2023-03-02T01:06:24.268Z,35.70
2023-03-02T01:09:02.183Z,37.10
2023-03-02T01:11:40.243Z,38.23
2023-03-02T01:14:20.042Z,38.57
2023-03-02T01:16:56.947Z,38.63
2023-03-02T01:19:39.450Z,40.17
2023-03-02T01:22:16.083Z,41.07
2023-03-02T01:24:54.760Z,40.73
2023-03-02T01:27:31.468Z,43.57
2023-03-02T01:30:07.810Z,44.43
2023-03-02T01:32:44.529Z,46.07
2023-03-02T01:35:23.734Z,47.33
2023-03-02T01:38:00.923Z,46.47
2023-03-02T01:40:38.983Z,48.37
2023-03-02T01:43:20.894Z,46.97
2023-03-02T01:45:59.859Z,47.90
2023-03-02T01:48:55.480Z,46.23
2023-03-02T01:51:50.736Z,48.13
2023-03-02T01:54:33.277Z,47.07
2023-03-02T01:57:11.603Z,43.63
2023-03-02T01:59:48.575Z,47.77
2023-03-02T02:02:27.089Z,47.13
2023-03-02T02:05:04.055Z,48.53
2023-03-02T02:07:47.212Z,47.57
2023-03-02T02:10:26.985Z,46.80
2023-03-02T02:13:03.345Z,47.77
2023-03-02T02:15:41.419Z,46.70
2023-03-02T02:18:20.051Z,48.63
2023-03-02T02:20:57.543Z,47.77
2023-03-02T02:23:45.753Z,46.73
2023-03-02T02:26:31.496Z,48.50
2023-03-02T02:29:13.608Z,49.37
2023-03-02T02:31:53.281Z,51.63
2023-03-02T02:34:35.941Z,50.97
2023-03-02T02:37:16.460Z,49.80
2023-03-02T02:39:59.763Z,51.37
2023-03-02T02:42:41.796Z,48.80
2023-03-02T02:45:29.048Z,51.57
2023-03-02T02:48:06.601Z,50.53
2023-03-02T02:50:43.943Z,50.90
2023-03-02T02:53:26.558Z,50.23
2023-03-02T02:56:09.045Z,49.70
2023-03-02T02:58:52.843Z,49.03
2023-03-02T03:01:30.773Z,49.20
2023-03-02T03:04:10.683Z,52.17
2023-03-02T03:06:59.797Z,50.60
2023-03-02T03:09:37.542Z,48.37
2023-03-02T03:12:24.121Z,49.37
2023-03-02T03:15:04.670Z,50.77
2023-03-02T03:17:42.633Z,50.20
2023-03-02T03:20:21.350Z,49.03
2023-03-02T03:23:00.854Z,49.20
2023-03-02T03:25:41.870Z,48.13
2023-03-02T03:28:19.830Z,48.57
2023-03-02T03:31:05.048Z,49.13
2023-03-02T03:33:42.789Z,49.77
2023-03-02T03:36:26.497Z,48.90
2023-03-02T03:39:05.046Z,48.43
2023-03-02T03:41:41.817Z,48.03
2023-03-02T03:44:19.572Z,47.13
2023-03-02T03:46:59.120Z,48.60
2023-03-02T03:49:38.375Z,49.93
2023-03-02T03:52:15.958Z,49.20
2023-03-02T03:54:52.863Z,43.87
2023-03-02T03:57:29.069Z,46.73
2023-03-02T04:00:09.757Z,45.73
2023-03-02T04:02:52.003Z,46.90
2023-03-02T04:05:31.448Z,42.17
2023-03-02T04:08:12.853Z,43.67
2023-03-02T04:10:51.545Z,45.23
2023-03-02T04:13:29.884Z,45.90
2023-03-02T04:16:13.514Z,44.33
2023-03-02T04:18:58.675Z,45.67
2023-03-02T04:21:40.706Z,43.80
2023-03-02T04:24:24.318Z,45.70
2023-03-02T04:27:05.539Z,45.40
2023-03-02T04:29:48.639Z,45.13
2023-03-02T04:32:26.665Z,45.27
2023-03-02T04:35:09.971Z,46.77
2023-03-02T04:37:48.980Z,46.87
2023-03-02T04:40:26.448Z,45.83
2023-03-02T04:43:07.661Z,47.47
2023-03-02T04:45:49.624Z,45.67
2023-03-02T04:48:27.712Z,47.07
2023-03-02T04:51:09.940Z,48.23
2023-03-02T04:53:46.311Z,48.23
2023-03-02T04:56:24.769Z,50.03
2023-03-02T04:59:09.004Z,48.83
2023-03-02T05:01:45.963Z,49.37
2023-03-02T05:04:24.257Z,46.40
2023-03-02T05:07:04.029Z,49.57
2023-03-02T05:09:41.204Z,49.73
2023-03-02T05:12:23.523Z,49.50
2023-03-02T05:15:05.578Z,49.40
2023-03-02T05:17:42.774Z,49.20
2023-03-02T05:20:20.451Z,48.90
2023-03-02T05:23:11.010Z,50.30
2023-03-02T05:25:47.466Z,48.57
2023-03-02T05:28:30.869Z,47.47
2023-03-02T05:31:14.112Z,47.03
2023-03-02T05:33:52.531Z,46.23
2023-03-02T05:36:30.218Z,46.47
2023-03-02T05:39:09.261Z,47.03
2023-03-02T05:41:57.091Z,46.67
2023-03-02T05:44:36.330Z,46.70
2023-03-02T05:47:14.600Z,44.97
2023-03-02T05:49:51.277Z,45.70
2023-03-02T05:52:39.743Z,48.83
2023-03-02T05:55:20.002Z,45.97
2023-03-02T05:58:01.160Z,45.93
2023-03-02T06:00:38.957Z,47.40
2023-03-02T06:03:23.308Z,48.53
2023-03-02T06:06:02.056Z,46.53
2023-03-02T06:08:43.230Z,47.53
2023-03-02T06:11:22.304Z,48.00
2023-03-02T06:14:02.329Z,48.13
2023-03-02T06:16:41.612Z,47.83
2023-03-02T06:19:19.517Z,48.57
2023-03-02T06:22:02.183Z,48.80
2023-03-02T06:24:40.061Z,50.50
2023-03-02T06:27:20.363Z,51.63
2023-03-02T06:29:57.641Z,51.03
2023-03-02T06:32:40.660Z,52.20
2023-03-02T06:35:18.885Z,53.27
2023-03-02T06:37:55.734Z,53.97
2023-03-02T06:40:35.987Z,52.60
2023-03-02T06:43:20.643Z,52.57
2023-03-02T06:46:02.133Z,52.13
2023-03-02T06:48:41.566Z,52.67
2023-03-02T06:51:18.354Z,53.20
2023-03-02T06:53:59.969Z,54.53
2023-03-02T06:56:36.923Z,53.63
2023-03-02T06:59:16.784Z,54.13
2023-03-02T07:01:53.393Z,54.00
2023-03-02T07:04:29.848Z,55.40
2023-03-02T07:07:11.458Z,56.80
2023-03-02T07:09:53.019Z,57.27
2023-03-02T07:12:29.544Z,57.70
2023-03-02T07:15:12.511Z,57.30
2023-03-02T07:17:50.994Z,58.67
2023-03-02T07:20:32.312Z,58.33
2023-03-02T07:23:13.487Z,58.70
2023-03-02T07:25:52.160Z,60.70
2023-03-02T07:28:28.986Z,59.27
2023-03-02T07:31:08.120Z,60.97
2023-03-02T07:33:51.654Z,69.53
2023-03-02T07:36:29.079Z,67.60
2023-03-02T07:39:08.810Z,72.27
2023-03-02T07:41:45.647Z,71.47
2023-03-02T07:44:23.127Z,71.87
2023-03-02T07:47:02.130Z,72.60
2023-03-02T07:49:42.895Z,71.83
2023-03-02T07:52:20.048Z,71.27
2023-03-02T07:54:58.628Z,72.47
2023-03-02T07:57:36.892Z,73.53
2023-03-02T08:00:14.635Z,73.00
2023-03-02T08:02:55.558Z,74.30
2023-03-02T08:05:32.237Z,75.07
2023-03-02T08:08:10.506Z,73.10
2023-03-02T08:10:46.721Z,74.50
2023-03-02T08:13:28.690Z,75.37
2023-03-02T08:16:11.073Z,73.63
2023-03-02T08:18:55.942Z,73.57
2023-03-02T08:21:36.425Z,73.40
2023-03-02T08:24:23.714Z,71.53
2023-03-02T08:27:00.850Z,77.47
2023-03-02T08:29:41.440Z,72.30
2023-03-02T08:32:18.257Z,72.43
2023-03-02T08:34:58.451Z,73.07
2023-03-02T08:37:35.250Z,73.87
2023-03-02T08:40:12.724Z,72.37
2023-03-02T08:42:51.578Z,75.27
2023-03-02T08:45:30.266Z,73.60
2023-03-02T08:48:06.871Z,70.87
2023-03-02T08:50:51.802Z,72.97
2023-03-02T08:53:30.241Z,72.83
2023-03-02T08:56:09.130Z,72.90
2023-03-02T08:58:48.822Z,72.77
2023-03-02T09:01:31.578Z,73.00
2023-03-02T09:04:16.294Z,71.83
2023-03-02T09:06:57.550Z,74.03
2023-03-02T09:09:36.800Z,73.27
2023-03-02T09:12:13.582Z,72.27
2023-03-02T09:14:50.333Z,74.70
2023-03-02T09:17:26.560Z,74.23
2023-03-02T09:20:02.659Z,76.77
2023-03-02T09:22:41.959Z,74.03
2023-03-02T09:25:24.489Z,74.33
2023-03-02T09:28:07.003Z,74.00
2023-03-02T09:30:44.648Z,73.23
2023-03-02T09:33:24.371Z,72.43
2023-03-02T09:36:04.625Z,72.63
2023-03-02T09:38:45.603Z,71.90
2023-03-02T09:41:42.016Z,69.87
2023-03-02T09:44:44.689Z,71.00
2023-03-02T09:47:35.506Z,70.07
2023-03-02T09:50:32.464Z,72.27
2023-03-02T09:53:34.121Z,71.70
2023-03-02T09:56:21.248Z,69.97
2023-03-02T09:59:08.940Z,72.03
2023-03-02T10:01:49.360Z,73.70
2023-03-02T10:04:32.866Z,72.17
2023-03-02T10:07:23.291Z,70.33
2023-03-02T10:10:02.406Z,71.10
2023-03-02T10:13:05.473Z,73.13
2023-03-02T10:15:49.617Z,72.20
2023-03-02T10:18:30.454Z,73.47
2023-03-02T10:21:11.607Z,74.97
2023-03-02T10:23:54.223Z,75.53
2023-03-02T10:26:43.617Z,77.93
2023-03-02T10:29:52.111Z,77.23
2023-03-02T10:32:34.367Z,77.27
2023-03-02T10:35:23.385Z,77.30
2023-03-02T10:38:18.545Z,77.27
2023-03-02T10:41:03.010Z,79.60
2023-03-02T10:43:45.010Z,77.93
2023-03-02T10:46:28.815Z,78.60
2023-03-02T10:49:06.611Z,80.77
2023-03-02T10:51:53.103Z,82.13
2023-03-02T10:54:37.113Z,82.40
2023-03-02T10:57:37.127Z,82.77
2023-03-02T11:00:28.255Z,82.03
2023-03-02T11:03:11.639Z,80.33
2023-03-02T11:05:51.770Z,80.90
2023-03-02T11:08:34.782Z,78.40
2023-03-02T11:11:26.155Z,81.53
2023-03-02T11:14:14.026Z,81.50
2023-03-02T11:17:09.338Z,77.57
2023-03-02T11:19:53.014Z,78.70
2023-03-02T11:22:42.636Z,79.63
2023-03-02T11:25:31.727Z,80.77
2023-03-02T11:28:16.509Z,80.00
2023-03-02T11:30:58.824Z,79.57
2023-03-02T11:33:44.041Z,79.40
2023-03-02T11:36:30.229Z,78.57
2023-03-02T11:39:10.793Z,82.23
2023-03-02T11:41:54.290Z,77.57
2023-03-02T11:44:31.630Z,80.27
2023-03-02T11:47:11.534Z,78.27
2023-03-02T11:49:55.099Z,75.57
2023-03-02T11:52:39.952Z,74.70
2023-03-02T11:55:24.816Z,76.27
2023-03-02T11:58:04.333Z,73.00
2023-03-02T12:00:43.507Z,70.03
2023-03-02T12:03:46.633Z,70.37
2023-03-02T12:06:43.160Z,72.73
2023-03-02T12:09:53.270Z,70.80
2023-03-02T12:12:53.202Z,72.53
2023-03-02T12:15:48.616Z,75.00
2023-03-02T12:18:55.298Z,75.73
2023-03-02T12:21:32.698Z,76.97
2023-03-02T12:24:23.005Z,79.43
2023-03-02T12:27:16.338Z,79.10
2023-03-02T12:30:03.083Z,78.23
2023-03-02T12:32:42.195Z,80.60
2023-03-02T12:35:25.719Z,80.73
2023-03-02T12:38:05.889Z,80.77
2023-03-02T12:41:03.854Z,83.17
2023-03-02T12:43:42.538Z,79.70
2023-03-02T12:46:37.366Z,76.13
2023-03-02T12:49:50.326Z,83.23
2023-03-02T12:52:35.431Z,79.53
2023-03-02T12:55:22.206Z,82.77
2023-03-02T12:58:10.930Z,84.63
2023-03-02T13:00:54.779Z,84.33
2023-03-02T13:03:39.676Z,83.03
2023-03-02T13:06:25.268Z,85.70
2023-03-02T13:09:05.123Z,85.87
2023-03-02T13:11:44.520Z,84.83
2023-03-02T13:14:32.528Z,85.00
2023-03-02T13:17:13.897Z,86.47
2023-03-02T13:19:54.906Z,85.20
2023-03-02T13:22:47.083Z,85.30
2023-03-02T13:25:32.894Z,84.50
2023-03-02T13:28:14.649Z,86.53
2023-03-02T13:30:57.136Z,86.53
2023-03-02T13:33:39.276Z,87.23
2023-03-02T13:36:26.031Z,89.77
2023-03-02T13:39:20.879Z,90.37
2023-03-02T13:42:05.570Z,89.67
2023-03-02T13:44:45.171Z,88.13
2023-03-02T13:47:30.989Z,89.63
2023-03-02T13:50:19.912Z,90.50
2023-03-02T13:53:08.936Z,89.07
2023-03-02T13:55:47.709Z,89.93
2023-03-02T13:58:27.815Z,93.23
2023-03-02T14:01:11.956Z,94.83
2023-03-02T14:03:54.175Z,95.87
2023-03-02T14:06:34.002Z,98.73
2023-03-02T14:09:14.917Z,97.40
2023-03-02T14:11:58.206Z,95.53
2023-03-02T14:14:50.709Z,96.07
2023-03-02T14:17:32.864Z,98.33
2023-03-02T14:20:10.046Z,95.50
2023-03-02T14:22:48.689Z,95.43
2023-03-02T14:25:28.623Z,97.07
2023-03-02T14:28:07.962Z,97.67
2023-03-02T14:30:47.520Z,97.90
2023-03-02T14:33:27.906Z,96.53
2023-03-02T14:36:09.390Z,100.63
2023-03-02T14:38:46.496Z,99.77
2023-03-02T14:41:53.476Z,99.13
2023-03-02T14:44:35.270Z,96.87
2023-03-02T14:47:17.977Z,98.60
2023-03-02T14:49:56.360Z,97.30
2023-03-02T14:52:46.064Z,97.33
2023-03-02T14:55:27.238Z,102.03
2023-03-02T14:58:12.212Z,99.43
2023-03-02T15:00:50.448Z,100.07
2023-03-02T15:03:29.236Z,99.57
2023-03-02T15:06:07.559Z,96.33
2023-03-02T15:08:48.530Z,99.63
2023-03-02T15:11:29.826Z,100.13
2023-03-02T15:14:18.907Z,99.50
2023-03-02T15:16:56.915Z,100.27
2023-03-02T15:19:33.819Z,101.73
2023-03-02T15:22:17.449Z,99.27
2023-03-02T15:24:58.616Z,99.50
2023-03-02T15:27:35.343Z,100.00
2023-03-02T15:30:19.608Z,93.03
2023-03-02T15:33:02.922Z,99.10
2023-03-02T15:35:47.374Z,96.13
2023-03-02T15:38:27.124Z,97.60
2023-03-02T15:41:03.755Z,86.73
2023-03-02T15:43:40.892Z,87.07
2023-03-02T15:46:21.489Z,86.70
2023-03-02T15:48:59.884Z,82.33
2023-03-02T15:51:37.936Z,94.03
2023-03-02T15:54:17.329Z,96.07
2023-03-02T15:56:56.338Z,93.70
2023-03-02T15:59:37.203Z,97.90
2023-03-02T16:02:17.350Z,99.37
2023-03-02T16:04:54.480Z,99.77
2023-03-02T16:07:33.001Z,100.63
2023-03-02T16:10:14.943Z,105.07
2023-03-02T16:12:52.675Z,104.33
2023-03-02T16:15:29.216Z,102.47
2023-03-02T16:18:11.551Z,100.83
2023-03-02T16:20:57.093Z,103.10
2023-03-02T16:23:37.458Z,102.37
2023-03-02T16:26:22.396Z,101.80
2023-03-02T16:28:59.194Z,99.70
2023-03-02T16:31:38.968Z,100.80
2023-03-02T16:34:23.026Z,98.20
2023-03-02T16:37:00.629Z,100.33
2023-03-02T16:39:38.406Z,98.83
2023-03-02T16:42:16.227Z,96.30
2023-03-02T16:44:56.478Z,97.47
2023-03-02T16:47:33.948Z,97.67
2023-03-02T16:50:13.775Z,93.43
2023-03-02T16:52:53.315Z,95.73
2023-03-02T16:55:29.704Z,96.57
2023-03-02T16:58:08.500Z,97.90
2023-03-02T17:00:48.408Z,99.80
2023-03-02T17:03:25.381Z,97.53
2023-03-02T17:06:08.705Z,96.83
2023-03-02T17:08:46.347Z,98.13
2023-03-02T17:11:26.862Z,98.00
2023-03-02T17:14:02.451Z,95.67
2023-03-02T17:16:44.134Z,98.23
2023-03-02T17:19:21.254Z,95.83
2023-03-02T17:22:04.365Z,95.47
2023-03-02T17:24:48.590Z,93.80
2023-03-02T17:27:26.768Z,93.70
2023-03-02T17:30:03.169Z,95.27
2023-03-02T17:32:39.763Z,93.87
2023-03-02T17:35:17.119Z,94.87
2023-03-02T17:37:58.370Z,93.80
2023-03-02T17:40:34.910Z,94.27
2023-03-02T17:43:11.178Z,93.87
2023-03-02T17:45:48.137Z,94.00
2023-03-02T17:48:27.215Z,97.03
2023-03-02T17:51:04.899Z,96.03
2023-03-02T17:53:52.693Z,93.53
2023-03-02T17:56:32.044Z,92.20
2023-03-02T17:59:09.779Z,93.03
2023-03-02T18:01:46.206Z,93.33
2023-03-02T18:04:21.985Z,96.67
2023-03-02T18:06:57.983Z,93.20
2023-03-02T18:09:37.075Z,90.67
2023-03-02T18:12:13.694Z,88.63
2023-03-02T18:14:49.402Z,91.80
2023-03-02T18:17:25.167Z,90.47
2023-03-02T18:20:01.269Z,91.10
2023-03-02T18:22:36.864Z,92.60
2023-03-02T18:25:15.795Z,92.07
2023-03-02T18:27:51.348Z,92.13
2023-03-02T18:30:27.594Z,94.40
2023-03-02T18:33:03.759Z,93.03
2023-03-02T18:35:39.750Z,94.83
2023-03-02T18:38:15.659Z,97.27
2023-03-02T18:40:54.890Z,95.70
2023-03-02T18:43:30.637Z,98.73
2023-03-02T18:46:06.658Z,98.43
2023-03-02T18:48:42.624Z,98.40
2023-03-02T18:51:18.457Z,98.37
2023-03-02T18:53:54.570Z,97.73
2023-03-02T18:56:32.975Z,97.87
2023-03-02T18:59:10.488Z,99.43
2023-03-02T19:01:46.913Z,97.67
2023-03-02T19:04:25.045Z,98.10
2023-03-02T19:07:02.395Z,99.83
2023-03-02T19:09:38.367Z,98.80
2023-03-02T19:12:16.708Z,99.13
2023-03-02T19:14:52.203Z,96.80
2023-03-02T19:17:26.931Z,99.23
2023-03-02T19:20:02.983Z,100.70
2023-03-02T19:22:38.214Z,98.53
2023-03-02T19:25:14.998Z,99.80
2023-03-02T19:27:53.092Z,99.97
2023-03-02T19:30:30.845Z,99.17
2023-03-02T19:33:08.515Z,99.73
2023-03-02T19:35:44.158Z,99.97
2023-03-02T19:38:19.920Z,100.17
2023-03-02T19:40:55.201Z,102.33
2023-03-02T19:43:32.007Z,98.13
2023-03-02T19:46:06.650Z,98.83
2023-03-02T19:48:41.070Z,101.70
2023-03-02T19:51:17.133Z,99.70
2023-03-02T19:53:52.166Z,101.30
2023-03-02T19:56:31.628Z,101.87
2023-03-02T19:59:08.839Z,104.43
2023-03-02T20:01:44.159Z,101.40
2023-03-02T20:04:19.479Z,104.63
2023-03-02T20:06:54.013Z,105.67
2023-03-02T20:09:29.479Z,104.20
2023-03-02T20:12:04.047Z,103.93
2023-03-02T20:14:41.056Z,104.73
2023-03-02T20:17:15.028Z,104.20
2023-03-02T20:19:51.284Z,104.90
2023-03-02T20:22:27.031Z,106.13
2023-03-02T20:25:02.495Z,104.50
2023-03-02T20:27:37.179Z,103.73
2023-03-02T20:30:21.678Z,106.77
2023-03-02T20:32:56.015Z,108.53
2023-03-02T20:35:31.684Z,103.37
2023-03-02T20:38:08.982Z,100.93
2023-03-02T20:40:44.079Z,106.77
2023-03-02T20:43:18.532Z,103.90
2023-03-02T20:45:54.436Z,104.50
2023-03-02T20:48:29.004Z,102.67
2023-03-02T20:51:03.321Z,101.60
2023-03-02T20:53:37.209Z,102.77
2023-03-02T20:56:13.111Z,103.10
2023-03-02T20:58:47.590Z,100.87
2023-03-02T21:01:25.121Z,101.60
2023-03-02T21:03:59.608Z,99.60
2023-03-02T21:06:34.988Z,101.10
2023-03-02T21:09:10.463Z,99.77
2023-03-02T21:11:45.524Z,100.73
2023-03-02T21:14:20.126Z,99.27
2023-03-02T21:16:55.576Z,99.60
2023-03-02T21:19:30.307Z,102.17
2023-03-02T21:22:03.709Z,104.60
2023-03-02T21:24:37.836Z,103.33
2023-03-02T21:27:12.154Z,102.63
2023-03-02T21:29:46.298Z,102.37
2023-03-02T21:32:23.682Z,102.47
2023-03-02T21:34:58.306Z,104.87
2023-03-02T21:37:33.036Z,105.17
2023-03-02T21:40:08.138Z,106.10
2023-03-02T21:42:42.553Z,105.33
2023-03-02T21:45:17.158Z,104.70
2023-03-02T21:47:54.422Z,106.83
2023-03-02T21:50:30.828Z,107.60
2023-03-02T21:53:05.435Z,107.17
2023-03-02T21:55:40.496Z,106.57
2023-03-02T21:58:17.919Z,110.60
2023-03-02T22:00:53.365Z,109.90
2023-03-02T22:03:31.873Z,107.60
2023-03-02T22:06:07.946Z,109.40
2023-03-02T22:08:43.518Z,108.63
2023-03-02T22:11:29.164Z,107.93
2023-03-02T22:14:07.883Z,109.17
2023-03-02T22:16:46.872Z,109.83
2023-03-02T22:19:32.343Z,110.30
2023-03-02T22:22:07.307Z,109.47
2023-03-02T22:24:45.502Z,111.53
2023-03-02T22:27:29.318Z,109.63
2023-03-02T22:30:07.142Z,112.07
2023-03-02T22:32:43.752Z,111.40
2023-03-02T22:35:27.509Z,114.70
2023-03-02T22:38:07.806Z,112.97
2023-03-02T22:40:44.588Z,113.20
2023-03-02T22:43:32.886Z,110.70
2023-03-02T22:46:17.586Z,110.43
2023-03-02T22:48:54.073Z,110.47
2023-03-02T22:51:34.430Z,109.20
2023-03-02T22:54:18.633Z,110.33
2023-03-02T22:56:55.975Z,110.03
2023-03-02T22:59:33.936Z,109.53
2023-03-02T23:02:19.111Z,107.60
2023-03-02T23:04:55.282Z,106.87
2023-03-02T23:07:32.209Z,107.50
2023-03-02T23:10:07.903Z,106.23
2023-03-02T23:12:43.198Z,103.57
2023-03-02T23:15:24.260Z,105.73
2023-03-02T23:18:02.265Z,107.77
2023-03-02T23:20:40.670Z,106.87
2023-03-02T23:23:18.631Z,107.47
2023-03-02T23:25:54.173Z,106.37
2023-03-02T23:28:30.249Z,105.93
2023-03-02T23:31:05.852Z,110.23
2023-03-02T23:33:41.441Z,111.50
2023-03-02T23:36:19.349Z,107.67
2023-03-02T23:38:57.545Z,109.97
2023-03-02T23:41:33.725Z,110.70
2023-03-02T23:44:10.049Z,108.37
2023-03-02T23:46:46.110Z,110.83
2023-03-02T23:49:23.275Z,112.63
2023-03-02T23:51:58.491Z,110.47
2023-03-02T23:54:36.552Z,107.77
2023-03-02T23:57:12.269Z,107.27
2023-03-02T23:59:48.364Z,108.57
